createdAt,value
2023-03-02T00:00:35.864Z,8.98
2023-03-02T00:01:41.917Z,8.07
2023-03-02T00:02:43.959Z,8.20
2023-03-02T00:03:45.786Z,7.60
2023-03-02T00:04:50.344Z,8.07
2023-03-02T00:05:52.049Z,7.32
2023-03-02T00:06:56.641Z,7.55
2023-03-02T00:07:58.593Z,7.40
2023-03-02T00:09:00.817Z,7.60
2023-03-02T00:10:02.557Z,7.70
2023-03-02T00:11:04.285Z,7.28
2023-03-02T00:12:06.527Z,7.17
2023-03-02T00:13:08.097Z,7.03
2023-03-02T00:14:09.695Z,7.10
2023-03-02T00:15:11.452Z,8.13
2023-03-02T00:16:13.113Z,7.47
2023-03-02T00:17:14.759Z,8.02
2023-03-02T00:18:16.379Z,7.25
2023-03-02T00:19:18.030Z,7.30
2023-03-02T00:20:19.694Z,6.45
2023-03-02T00:21:21.291Z,7.20
2023-03-02T00:22:22.968Z,7.80
2023-03-02T00:23:24.711Z,7.10
2023-03-02T00:24:26.316Z,6.93
2023-03-02T00:25:28.892Z,7.15
2023-03-02T00:26:35.858Z,6.68
2023-03-02T00:27:37.519Z,6.75
2023-03-02T00:28:39.106Z,6.45
2023-03-02T00:29:40.939Z,7.03
2023-03-02T00:30:42.583Z,6.88
2023-03-02T00:31:44.310Z,6.47
2023-03-02T00:32:46.027Z,7.07
2023-03-02T00:33:47.621Z,6.90
2023-03-02T00:34:49.220Z,6.20
2023-03-02T00:35:50.914Z,6.30
2023-03-02T00:36:52.863Z,6.60
2023-03-02T00:37:54.524Z,7.00
2023-03-02T00:38:57.454Z,6.22
2023-03-02T00:39:59.038Z,6.35
2023-03-02T00:41:00.642Z,6.80
2023-03-02T00:42:02.361Z,7.30
2023-03-02T00:43:04.191Z,6.20
2023-03-02T00:44:05.841Z,6.47
2023-03-02T00:45:07.993Z,6.25
2023-03-02T00:46:13.765Z,6.20
2023-03-02T00:47:15.993Z,5.88
2023-03-02T00:48:17.595Z,6.50
2023-03-02T00:49:19.166Z,6.75
2023-03-02T00:50:20.780Z,6.50
2023-03-02T00:51:22.457Z,6.45
2023-03-02T00:52:25.387Z,6.40
2023-03-02T00:53:27.005Z,6.40
2023-03-02T00:54:28.654Z,6.47
2023-03-02T00:55:30.260Z,6.55
2023-03-02T00:56:33.905Z,6.50
2023-03-02T00:57:35.735Z,6.75
2023-03-02T00:58:37.614Z,7.18
2023-03-02T00:59:39.529Z,6.75
2023-03-02T01:00:41.137Z,6.60
2023-03-02T01:01:42.734Z,7.88
2023-03-02T01:02:44.805Z,7.82
2023-03-02T01:03:46.504Z,8.67
2023-03-02T01:04:48.355Z,10.02
2023-03-02T01:05:50.153Z,11.13
2023-03-02T01:06:51.757Z,10.25
2023-03-02T01:07:53.591Z,9.52
2023-03-02T01:08:55.439Z,8.73
2023-03-02T01:09:57.038Z,9.40
2023-03-02T01:11:01.411Z,9.98
2023-03-02T01:12:03.199Z,9.35
2023-03-02T01:13:05.924Z,9.13
2023-03-02T01:14:07.565Z,8.87
2023-03-02T01:15:09.929Z,8.77
2023-03-02T01:16:12.072Z,8.65
2023-03-02T01:17:14.115Z,8.73
2023-03-02T01:18:15.706Z,9.98
2023-03-02T01:19:17.459Z,8.10
2023-03-02T01:20:19.121Z,8.50
2023-03-02T01:21:20.808Z,7.65
2023-03-02T01:22:22.831Z,9.18
2023-03-02T01:23:24.459Z,8.65
2023-03-02T01:24:26.167Z,7.70
2023-03-02T01:25:27.745Z,7.22
2023-03-02T01:26:29.646Z,8.80
2023-03-02T01:27:31.333Z,7.60
2023-03-02T01:28:32.961Z,8.20
2023-03-02T01:29:34.562Z,7.32
2023-03-02T01:30:36.223Z,8.00
2023-03-02T01:31:37.947Z,7.28
2023-03-02T01:32:39.681Z,8.05
2023-03-02T01:33:41.309Z,8.60
2023-03-02T01:34:42.995Z,8.37
2023-03-02T01:35:46.250Z,7.57
2023-03-02T01:36:47.914Z,7.13
2023-03-02T01:37:49.480Z,6.88
2023-03-02T01:38:51.185Z,7.95
2023-03-02T01:39:52.829Z,6.93
2023-03-02T01:40:54.410Z,7.60
2023-03-02T01:41:56.080Z,6.88
2023-03-02T01:42:58.679Z,6.82
2023-03-02T01:44:00.240Z,7.90
2023-03-02T01:45:02.103Z,7.57
2023-03-02T01:46:06.650Z,8.45
2023-03-02T01:47:14.002Z,7.97
2023-03-02T01:48:16.309Z,7.63
2023-03-02T01:49:17.913Z,7.95
2023-03-02T01:50:25.014Z,7.38
2023-03-02T01:51:27.698Z,7.55
2023-03-02T01:52:29.565Z,7.88
2023-03-02T01:53:32.233Z,7.93
2023-03-02T01:54:33.827Z,8.63
2023-03-02T01:55:35.472Z,8.80
2023-03-02T01:56:39.211Z,8.20
2023-03-02T01:57:43.882Z,8.68
2023-03-02T01:58:46.466Z,8.75
2023-03-02T01:59:48.057Z,8.25
2023-03-02T02:00:49.680Z,8.95
2023-03-02T02:01:55.742Z,8.05
2023-03-02T02:03:08.764Z,8.23
2023-03-02T02:04:10.457Z,8.38
2023-03-02T02:05:17.901Z,8.80
2023-03-02T02:06:26.554Z,8.80
2023-03-02T02:07:28.210Z,9.00
2023-03-02T02:08:29.828Z,9.77
2023-03-02T02:09:34.841Z,8.77
2023-03-02T02:10:36.534Z,9.05
2023-03-02T02:11:38.198Z,8.55
2023-03-02T02:12:39.836Z,8.32
2023-03-02T02:13:41.574Z,8.38
2023-03-02T02:14:43.260Z,7.97
2023-03-02T02:15:44.912Z,8.93
2023-03-02T02:16:46.541Z,8.30
2023-03-02T02:17:48.358Z,8.23
2023-03-02T02:18:49.966Z,8.57
2023-03-02T02:20:00.575Z,8.50
2023-03-02T02:21:02.257Z,8.15
2023-03-02T02:22:03.906Z,8.18
2023-03-02T02:23:23.725Z,8.80
2023-03-02T02:24:33.900Z,8.32
2023-03-02T02:25:53.783Z,8.52
2023-03-02T02:26:55.632Z,8.50
2023-03-02T02:27:57.265Z,8.73
2023-03-02T02:29:01.087Z,7.97
2023-03-02T02:30:03.697Z,9.18
2023-03-02T02:31:17.075Z,8.32
2023-03-02T02:32:30.730Z,9.02
2023-03-02T02:33:32.522Z,8.10
2023-03-02T02:34:37.997Z,8.93
2023-03-02T02:35:39.646Z,9.68
2023-03-02T02:36:43.674Z,9.18
2023-03-02T02:37:53.891Z,8.75
2023-03-02T02:38:55.935Z,8.93
2023-03-02T02:39:57.596Z,8.95
2023-03-02T02:41:00.216Z,8.82
2023-03-02T02:42:04.378Z,9.52
2023-03-02T02:43:06.021Z,9.23
2023-03-02T02:44:11.858Z,8.82
2023-03-02T02:45:31.666Z,8.82
2023-03-02T02:46:33.799Z,9.07
2023-03-02T02:47:35.769Z,8.50
2023-03-02T02:48:37.452Z,8.38
2023-03-02T02:49:39.463Z,7.57
2023-03-02T02:50:41.066Z,8.20
2023-03-02T02:51:42.655Z,8.32
2023-03-02T02:52:44.294Z,7.60
2023-03-02T02:54:03.861Z,7.97
2023-03-02T02:55:05.822Z,7.82
2023-03-02T02:56:07.765Z,9.27
2023-03-02T02:57:09.655Z,7.97
2023-03-02T02:58:20.686Z,7.57
2023-03-02T02:59:24.707Z,7.88
2023-03-02T03:00:26.335Z,7.67
2023-03-02T03:01:28.050Z,9.75
2023-03-02T03:02:31.031Z,10.60
2023-03-02T03:03:37.457Z,12.05
2023-03-02T03:04:39.204Z,9.13
2023-03-02T03:05:40.815Z,8.23
2023-03-02T03:06:50.681Z,7.72
2023-03-02T03:07:53.333Z,7.95
2023-03-02T03:08:57.462Z,6.80
2023-03-02T03:10:04.420Z,8.48
2023-03-02T03:11:06.048Z,6.13
2023-03-02T03:12:20.580Z,7.15
2023-03-02T03:13:22.194Z,8.05
2023-03-02T03:14:50.137Z,9.07
2023-03-02T03:15:51.728Z,7.80
2023-03-02T03:16:53.588Z,7.80
2023-03-02T03:17:58.964Z,8.23
2023-03-02T03:19:10.645Z,6.95
2023-03-02T03:20:12.539Z,6.13
2023-03-02T03:21:14.174Z,6.28
2023-03-02T03:22:16.263Z,7.10
2023-03-02T03:23:17.936Z,7.45
2023-03-02T03:24:19.663Z,8.35
2023-03-02T03:25:22.246Z,7.15
2023-03-02T03:26:23.834Z,7.03
2023-03-02T03:27:25.464Z,7.07
2023-03-02T03:28:27.862Z,6.95
2023-03-02T03:29:29.621Z,7.35
2023-03-02T03:30:31.236Z,7.97
2023-03-02T03:31:33.015Z,6.75
2023-03-02T03:32:35.497Z,6.20
2023-03-02T03:33:37.080Z,7.07
2023-03-02T03:34:40.889Z,6.35
2023-03-02T03:35:42.767Z,7.53
2023-03-02T03:36:44.502Z,6.93
2023-03-02T03:37:46.088Z,7.22
2023-03-02T03:38:48.771Z,6.50
2023-03-02T03:39:50.377Z,7.22
2023-03-02T03:40:51.992Z,6.15
2023-03-02T03:41:53.578Z,6.50
2023-03-02T03:42:55.233Z,6.47
2023-03-02T03:43:56.857Z,7.07
2023-03-02T03:44:58.480Z,6.65
2023-03-02T03:46:00.119Z,6.63
2023-03-02T03:47:01.853Z,7.43
2023-03-02T03:48:03.562Z,6.30
2023-03-02T03:49:05.392Z,6.75
2023-03-02T03:50:07.197Z,7.03
2023-03-02T03:51:08.798Z,6.50
2023-03-02T03:52:10.387Z,6.45
2023-03-02T03:53:12.057Z,6.17
2023-03-02T03:54:13.635Z,6.45
2023-03-02T03:55:15.263Z,6.25
2023-03-02T03:56:17.086Z,6.45
2023-03-02T03:57:18.718Z,6.80
2023-03-02T03:58:20.399Z,5.93
2023-03-02T03:59:23.168Z,7.15
2023-03-02T04:00:25.057Z,7.50
2023-03-02T04:01:33.572Z,6.30
2023-03-02T04:02:35.214Z,6.30
2023-03-02T04:03:36.791Z,6.73
2023-03-02T04:04:38.386Z,6.80
2023-03-02T04:05:40.057Z,6.38
2023-03-02T04:06:41.719Z,6.80
2023-03-02T04:07:43.391Z,8.93
2023-03-02T04:08:45.020Z,6.65
2023-03-02T04:09:46.702Z,6.45
2023-03-02T04:10:48.363Z,7.45
2023-03-02T04:11:52.367Z,6.65
2023-03-02T04:12:54.035Z,6.60
2023-03-02T04:13:55.645Z,6.83
2023-03-02T04:14:57.316Z,7.18
2023-03-02T04:15:58.918Z,6.28
2023-03-02T04:17:00.546Z,6.95
2023-03-02T04:18:02.656Z,6.50
2023-03-02T04:19:10.830Z,6.57
2023-03-02T04:20:16.706Z,6.53
2023-03-02T04:21:18.794Z,7.00
2023-03-02T04:22:20.452Z,6.63
2023-03-02T04:23:22.090Z,6.32
2023-03-02T04:24:23.957Z,6.20
2023-03-02T04:25:26.648Z,6.40
2023-03-02T04:26:28.309Z,6.80
2023-03-02T04:27:30.022Z,6.68
2023-03-02T04:28:32.397Z,6.30
2023-03-02T04:29:34.278Z,6.78
2023-03-02T04:30:35.897Z,8.82
2023-03-02T04:31:37.579Z,9.40
2023-03-02T04:32:39.236Z,10.05
2023-03-02T04:33:40.843Z,8.63
2023-03-02T04:34:42.501Z,7.97
2023-03-02T04:35:44.151Z,9.63
2023-03-02T04:36:45.836Z,9.43
2023-03-02T04:37:47.475Z,7.78
2023-03-02T04:38:49.354Z,9.02
2023-03-02T04:39:52.803Z,7.85
2023-03-02T04:40:54.385Z,7.28
2023-03-02T04:41:55.965Z,7.55
2023-03-02T04:42:57.571Z,7.28
2023-03-02T04:43:59.258Z,7.05
2023-03-02T04:45:00.900Z,6.97
2023-03-02T04:46:02.607Z,7.72
2023-03-02T04:47:04.246Z,17.08
2023-03-02T04:48:06.353Z,13.50
2023-03-02T04:49:08.042Z,26.45
2023-03-02T04:50:10.648Z,13.27
2023-03-02T04:51:29.805Z,9.90
2023-03-02T04:52:31.513Z,7.75
2023-03-02T04:53:33.092Z,8.48
2023-03-02T04:54:34.765Z,7.82
2023-03-02T04:55:36.397Z,10.33
2023-03-02T04:56:38.171Z,10.15
2023-03-02T04:57:39.884Z,10.73
2023-03-02T04:58:41.467Z,10.05
2023-03-02T04:59:43.106Z,8.77
2023-03-02T05:00:44.745Z,10.68
2023-03-02T05:01:46.701Z,10.15
2023-03-02T05:02:48.336Z,8.52
2023-03-02T05:03:50.071Z,8.32
2023-03-02T05:04:51.738Z,10.27
2023-03-02T05:05:53.359Z,10.80
2023-03-02T05:06:55.139Z,12.77
2023-03-02T05:07:58.546Z,10.02
2023-03-02T05:09:00.630Z,9.82
2023-03-02T05:10:02.306Z,10.32
2023-03-02T05:11:04.518Z,9.38
2023-03-02T05:12:06.661Z,8.20
2023-03-02T05:13:08.263Z,8.10
2023-03-02T05:14:11.100Z,8.15
2023-03-02T05:15:12.741Z,8.10
2023-03-02T05:16:14.423Z,7.30
2023-03-02T05:17:16.050Z,7.00
2023-03-02T05:18:17.801Z,7.15
2023-03-02T05:19:19.487Z,6.95
2023-03-02T05:20:21.415Z,7.40
2023-03-02T05:21:23.067Z,11.05
2023-03-02T05:22:24.661Z,9.35
2023-03-02T05:23:27.596Z,7.63
2023-03-02T05:24:29.282Z,7.88
2023-03-02T05:25:31.836Z,6.75
2023-03-02T05:26:33.776Z,6.87
2023-03-02T05:27:36.858Z,6.70
2023-03-02T05:28:38.533Z,6.90
2023-03-02T05:29:40.174Z,6.75
2023-03-02T05:30:42.119Z,7.90
2023-03-02T05:31:44.568Z,6.30
2023-03-02T05:32:46.271Z,6.28
2023-03-02T05:33:47.927Z,7.28
2023-03-02T05:34:49.532Z,6.30
2023-03-02T05:35:51.159Z,6.53
2023-03-02T05:36:52.832Z,5.30
2023-03-02T05:37:54.439Z,8.05
2023-03-02T05:38:56.070Z,6.60
2023-03-02T05:39:57.693Z,5.97
2023-03-02T05:40:59.336Z,6.78
2023-03-02T05:42:00.992Z,5.97
2023-03-02T05:43:02.605Z,7.43
2023-03-02T05:44:05.088Z,9.20
2023-03-02T05:45:07.343Z,11.73
2023-03-02T05:46:09.113Z,9.52
2023-03-02T05:47:10.796Z,6.57
2023-03-02T05:48:13.129Z,8.75
2023-03-02T05:49:14.738Z,12.43
2023-03-02T05:50:16.561Z,10.63
2023-03-02T05:51:18.171Z,8.95
2023-03-02T05:52:19.984Z,8.20
2023-03-02T05:53:21.605Z,7.47
2023-03-02T05:54:23.223Z,8.57
2023-03-02T05:55:24.863Z,6.25
2023-03-02T05:56:26.776Z,6.70
2023-03-02T05:57:28.422Z,7.37
2023-03-02T05:58:30.005Z,6.57
2023-03-02T05:59:31.622Z,7.20
2023-03-02T06:00:33.241Z,8.52
2023-03-02T06:01:36.949Z,14.05
2023-03-02T06:02:39.363Z,9.55
2023-03-02T06:03:41.073Z,6.07
2023-03-02T06:04:44.424Z,5.75
2023-03-02T06:05:51.051Z,5.25
2023-03-02T06:06:52.829Z,6.25
2023-03-02T06:07:54.889Z,5.60
2023-03-02T06:08:56.515Z,7.97
2023-03-02T06:09:58.127Z,8.55
2023-03-02T06:10:59.956Z,8.10
2023-03-02T06:12:01.605Z,12.07
2023-03-02T06:13:03.314Z,7.32
2023-03-02T06:14:04.913Z,12.88
2023-03-02T06:15:07.301Z,35.38
2023-03-02T06:16:09.133Z,7.63
2023-03-02T06:17:10.817Z,31.67
2023-03-02T06:18:12.751Z,14.37
2023-03-02T06:19:14.367Z,8.05
2023-03-02T06:20:16.040Z,7.32
2023-03-02T06:21:17.678Z,7.78
2023-03-02T06:22:19.294Z,9.23
2023-03-02T06:23:20.956Z,6.90
2023-03-02T06:24:22.628Z,6.18
2023-03-02T06:25:24.725Z,7.03
2023-03-02T06:26:26.400Z,6.63
2023-03-02T06:27:28.017Z,6.97
2023-03-02T06:28:29.618Z,14.20
2023-03-02T06:29:31.280Z,15.35
2023-03-02T06:30:32.942Z,8.55
2023-03-02T06:31:34.800Z,27.60
2023-03-02T06:32:36.617Z,16.70
2023-03-02T06:33:38.276Z,15.02
2023-03-02T06:34:39.918Z,15.00
2023-03-02T06:35:42.488Z,11.25
2023-03-02T06:36:44.274Z,9.30
2023-03-02T06:37:45.935Z,8.30
2023-03-02T06:38:47.534Z,8.40
2023-03-02T06:39:49.112Z,8.02
2023-03-02T06:40:50.744Z,7.35
2023-03-02T06:41:52.493Z,7.95
2023-03-02T06:42:54.207Z,8.40
2023-03-02T06:43:55.844Z,6.40
2023-03-02T06:44:57.532Z,7.32
2023-03-02T06:46:00.830Z,7.72
2023-03-02T06:47:02.502Z,8.07
2023-03-02T06:48:04.525Z,12.18
2023-03-02T06:49:06.555Z,12.00
2023-03-02T06:50:08.803Z,11.30
2023-03-02T06:51:10.448Z,9.40
2023-03-02T06:52:13.661Z,8.35
2023-03-02T06:53:17.734Z,7.45
2023-03-02T06:54:19.342Z,5.57
2023-03-02T06:55:21.074Z,6.03
2023-03-02T06:56:22.874Z,5.70
2023-03-02T06:57:24.498Z,5.55
2023-03-02T06:58:26.319Z,5.80
2023-03-02T06:59:27.980Z,5.63
2023-03-02T07:00:29.569Z,7.00
2023-03-02T07:01:35.745Z,5.88
2023-03-02T07:02:37.568Z,13.25
2023-03-02T07:03:39.298Z,15.82
2023-03-02T07:04:41.000Z,13.05
2023-03-02T07:05:44.568Z,11.07
2023-03-02T07:06:48.046Z,10.05
2023-03-02T07:07:49.709Z,8.25
2023-03-02T07:08:51.361Z,6.10
2023-03-02T07:09:53.037Z,6.53
2023-03-02T07:10:54.659Z,5.90
2023-03-02T07:11:56.806Z,5.82
2023-03-02T07:12:58.409Z,5.80
2023-03-02T07:14:00.830Z,8.73
2023-03-02T07:15:02.513Z,12.43
2023-03-02T07:16:11.283Z,13.02
2023-03-02T07:17:12.974Z,27.92
2023-03-02T07:18:14.597Z,12.30
2023-03-02T07:19:16.496Z,6.15
2023-03-02T07:20:18.417Z,6.30
2023-03-02T07:21:20.055Z,4.07
2023-03-02T07:22:21.849Z,4.70
2023-03-02T07:23:24.909Z,4.68
2023-03-02T07:24:26.504Z,4.82
2023-03-02T07:25:28.225Z,4.35
2023-03-02T07:26:29.888Z,5.07
2023-03-02T07:27:31.542Z,4.53
2023-03-02T07:28:33.177Z,5.07
2023-03-02T07:29:34.869Z,4.60
2023-03-02T07:30:36.505Z,4.70
2023-03-02T07:31:38.122Z,4.90
2023-03-02T07:32:39.867Z,4.78
2023-03-02T07:33:41.605Z,5.90
2023-03-02T07:34:43.256Z,5.65
2023-03-02T07:35:44.881Z,5.88
2023-03-02T07:36:46.508Z,6.20
2023-03-02T07:37:48.188Z,5.50
2023-03-02T07:38:49.798Z,5.90
2023-03-02T07:39:51.490Z,6.25
2023-03-02T07:40:53.123Z,5.67
2023-03-02T07:42:00.791Z,5.63
2023-03-02T07:43:02.423Z,4.47
2023-03-02T07:44:04.170Z,4.30
2023-03-02T07:45:06.483Z,4.88
2023-03-02T07:46:08.152Z,4.25
2023-03-02T07:47:09.889Z,6.72
2023-03-02T07:48:11.501Z,3.50
2023-03-02T07:49:13.159Z,4.00
2023-03-02T07:50:14.932Z,4.38
2023-03-02T07:51:16.562Z,4.83
2023-03-02T07:52:18.186Z,5.10
2023-03-02T07:53:19.783Z,4.63
2023-03-02T07:54:21.466Z,4.47
2023-03-02T07:55:23.248Z,4.22
2023-03-02T07:56:25.129Z,4.65
2023-03-02T07:57:26.801Z,4.65
2023-03-02T07:58:28.501Z,4.45
2023-03-02T07:59:30.207Z,4.63
2023-03-02T08:00:31.826Z,4.32
2023-03-02T08:01:33.786Z,4.50
2023-03-02T08:02:35.739Z,4.70
2023-03-02T08:03:37.554Z,4.95
2023-03-02T08:04:39.169Z,4.78
2023-03-02T08:05:40.858Z,5.28
2023-03-02T08:06:42.680Z,5.28
2023-03-02T08:07:46.479Z,4.47
2023-03-02T08:08:48.257Z,4.88
2023-03-02T08:09:50.035Z,4.57
2023-03-02T08:10:51.635Z,5.05
2023-03-02T08:11:53.404Z,3.93
2023-03-02T08:12:55.042Z,4.50
2023-03-02T08:14:00.390Z,4.38
2023-03-02T08:15:03.740Z,5.30
2023-03-02T08:16:07.402Z,3.95
2023-03-02T08:17:09.104Z,3.85
2023-03-02T08:18:10.693Z,3.80
2023-03-02T08:19:12.418Z,4.75
2023-03-02T08:20:14.237Z,4.55
2023-03-02T08:21:17.971Z,3.85
2023-03-02T08:22:19.603Z,3.50
2023-03-02T08:23:21.382Z,3.92
2023-03-02T08:24:23.012Z,4.03
2023-03-02T08:25:24.784Z,5.82
2023-03-02T08:26:26.498Z,4.40
2023-03-02T08:27:28.129Z,5.35
2023-03-02T08:28:29.816Z,4.78
2023-03-02T08:29:31.469Z,4.38
2023-03-02T08:30:33.125Z,4.65
2023-03-02T08:31:35.251Z,5.05
2023-03-02T08:32:37.138Z,4.00
2023-03-02T08:33:38.888Z,4.45
2023-03-02T08:34:40.706Z,3.80
2023-03-02T08:35:42.349Z,4.07
2023-03-02T08:36:44.665Z,4.10
2023-03-02T08:37:46.218Z,4.38
2023-03-02T08:38:48.517Z,3.35
2023-03-02T08:39:50.508Z,3.40
2023-03-02T08:40:52.676Z,3.50
2023-03-02T08:41:54.349Z,3.60
2023-03-02T08:42:57.500Z,4.17
2023-03-02T08:43:59.359Z,3.70
2023-03-02T08:45:01.012Z,4.20
2023-03-02T08:46:02.700Z,4.13
2023-03-02T08:47:04.460Z,4.10
2023-03-02T08:48:06.286Z,4.18
2023-03-02T08:49:07.933Z,3.60
2023-03-02T08:50:10.308Z,3.78
2023-03-02T08:51:13.964Z,3.60
2023-03-02T08:52:15.673Z,4.03
2023-03-02T08:53:17.273Z,3.97
2023-03-02T08:54:19.274Z,4.20
2023-03-02T08:55:21.148Z,3.80
2023-03-02T08:56:24.804Z,4.30
2023-03-02T08:57:26.484Z,4.20
2023-03-02T08:58:29.808Z,3.67
2023-03-02T08:59:31.430Z,4.05
2023-03-02T09:00:33.166Z,3.70
2023-03-02T09:01:36.164Z,4.38
2023-03-02T09:02:38.314Z,4.22
2023-03-02T09:03:39.918Z,4.80
2023-03-02T09:04:41.767Z,3.35
2023-03-02T09:05:43.863Z,4.25
2023-03-02T09:06:45.556Z,3.97
2023-03-02T09:07:47.215Z,3.80
2023-03-02T09:08:48.907Z,4.20
2023-03-02T09:09:50.558Z,3.85
2023-03-02T09:10:53.091Z,4.32
2023-03-02T09:11:54.863Z,4.72
2023-03-02T09:12:56.455Z,4.80
2023-03-02T09:13:58.099Z,4.20
2023-03-02T09:14:59.717Z,4.35
2023-03-02T09:16:02.027Z,4.53
2023-03-02T09:17:04.171Z,5.30
2023-03-02T09:18:05.831Z,4.13
2023-03-02T09:19:07.436Z,4.22
2023-03-02T09:20:09.960Z,4.40
2023-03-02T09:21:11.593Z,4.53
2023-03-02T09:22:13.245Z,4.63
2023-03-02T09:23:14.837Z,4.35
2023-03-02T09:24:16.515Z,4.70
2023-03-02T09:25:18.764Z,4.20
2023-03-02T09:26:20.711Z,4.20
2023-03-02T09:27:22.334Z,5.40
2023-03-02T09:28:24.148Z,4.80
2023-03-02T09:29:25.971Z,4.38
2023-03-02T09:30:27.691Z,4.35
2023-03-02T09:31:30.440Z,4.78
2023-03-02T09:32:32.378Z,4.55
2023-03-02T09:33:34.660Z,4.70
2023-03-02T09:34:36.338Z,5.03
2023-03-02T09:35:38.711Z,4.70
2023-03-02T09:36:40.412Z,5.53
2023-03-02T09:37:44.272Z,5.40
2023-03-02T09:38:46.147Z,4.95
2023-03-02T09:39:48.056Z,4.95
2023-03-02T09:40:49.898Z,5.10
2023-03-02T09:42:00.943Z,6.18
2023-03-02T09:43:23.836Z,5.40
2023-03-02T09:45:21.700Z,4.88
2023-03-02T09:46:26.287Z,4.63
2023-03-02T09:47:35.470Z,3.92
2023-03-02T09:49:02.056Z,5.72
2023-03-02T09:50:22.693Z,5.40
2023-03-02T09:51:34.696Z,5.07
2023-03-02T09:53:11.847Z,4.97
2023-03-02T09:54:25.225Z,5.38
2023-03-02T09:55:28.559Z,4.78
2023-03-02T09:56:30.461Z,4.65
2023-03-02T09:57:33.975Z,5.75
2023-03-02T09:58:36.364Z,5.63
2023-03-02T09:59:45.345Z,6.13
2023-03-02T10:00:47.221Z,5.60
2023-03-02T10:02:16.754Z,5.43
2023-03-02T10:03:23.433Z,5.30
2023-03-02T10:04:30.375Z,5.13
2023-03-02T10:05:55.440Z,5.10
2023-03-02T10:06:59.712Z,5.68
2023-03-02T10:08:01.294Z,5.85
2023-03-02T10:09:03.074Z,6.20
2023-03-02T10:10:25.940Z,5.13
2023-03-02T10:11:36.213Z,5.50
2023-03-02T10:13:00.069Z,5.38
2023-03-02T10:14:13.586Z,6.45
2023-03-02T10:15:36.220Z,5.05
2023-03-02T10:16:39.068Z,5.45
2023-03-02T10:17:52.944Z,5.82
2023-03-02T10:19:05.404Z,5.40
2023-03-02T10:20:34.250Z,5.47
2023-03-02T10:21:44.238Z,5.20
2023-03-02T10:22:52.561Z,5.30
2023-03-02T10:23:59.800Z,6.07
2023-03-02T10:25:16.608Z,5.65
2023-03-02T10:26:35.481Z,5.80
2023-03-02T10:27:39.937Z,5.97
2023-03-02T10:28:49.582Z,5.68
2023-03-02T10:29:59.310Z,5.25
2023-03-02T10:31:12.564Z,5.65
2023-03-02T10:32:19.492Z,6.05
2023-03-02T10:33:21.365Z,6.10
2023-03-02T10:34:24.660Z,6.23
2023-03-02T10:35:26.921Z,5.30
2023-03-02T10:36:37.855Z,6.22
2023-03-02T10:37:39.744Z,5.78
2023-03-02T10:38:41.473Z,5.55
2023-03-02T10:39:43.085Z,6.28
2023-03-02T10:40:49.455Z,5.05
2023-03-02T10:42:05.149Z,5.72
2023-03-02T10:43:17.220Z,5.70
2023-03-02T10:44:21.636Z,6.22
2023-03-02T10:45:31.253Z,5.90
2023-03-02T10:46:43.104Z,6.47
2023-03-02T10:47:44.854Z,6.70
2023-03-02T10:48:51.873Z,6.10
2023-03-02T10:49:54.344Z,6.55
2023-03-02T10:50:57.178Z,6.00
2023-03-02T10:52:08.539Z,5.57
2023-03-02T10:53:17.651Z,5.88
2023-03-02T10:54:19.316Z,6.38
2023-03-02T10:55:20.977Z,5.95
2023-03-02T10:56:22.854Z,5.70
2023-03-02T10:57:27.283Z,5.75
2023-03-02T10:58:33.027Z,5.90
2023-03-02T10:59:43.613Z,6.03
2023-03-02T11:00:55.881Z,6.45
2023-03-02T11:02:01.094Z,5.75
2023-03-02T11:03:04.677Z,7.38
2023-03-02T11:04:13.480Z,8.13
2023-03-02T11:05:17.767Z,5.97
2023-03-02T11:06:20.287Z,15.57
2023-03-02T11:07:23.577Z,5.93
2023-03-02T11:08:27.178Z,4.82
2023-03-02T11:09:28.875Z,5.75
2023-03-02T11:10:38.245Z,7.70
2023-03-02T11:11:39.930Z,6.65
2023-03-02T11:12:46.002Z,4.95
2023-03-02T11:13:47.691Z,5.43
2023-03-02T11:14:49.273Z,5.53
2023-03-02T11:15:51.990Z,5.63
2023-03-02T11:16:53.772Z,6.03
2023-03-02T11:18:00.112Z,6.37
2023-03-02T11:19:25.880Z,5.82
2023-03-02T11:20:34.397Z,5.28
2023-03-02T11:21:47.572Z,4.93
2023-03-02T11:23:12.009Z,5.22
2023-03-02T11:24:30.218Z,6.88
2023-03-02T11:25:35.718Z,5.53
2023-03-02T11:26:43.033Z,5.25
2023-03-02T11:27:44.702Z,5.03
2023-03-02T11:28:51.964Z,5.65
2023-03-02T11:29:57.298Z,4.77
2023-03-02T11:30:59.117Z,4.95
2023-03-02T11:32:09.334Z,5.07
2023-03-02T11:33:20.808Z,4.95
2023-03-02T11:34:49.135Z,5.47
2023-03-02T11:35:58.825Z,5.03
2023-03-02T11:37:04.974Z,4.97
2023-03-02T11:38:46.804Z,5.40
2023-03-02T11:39:55.845Z,4.85
2023-03-02T11:41:00.295Z,5.00
2023-03-02T11:42:01.908Z,4.87
2023-03-02T11:43:06.395Z,5.35
2023-03-02T11:44:14.320Z,5.18
2023-03-02T11:45:23.809Z,4.80
2023-03-02T11:46:27.874Z,4.97
2023-03-02T11:47:31.484Z,5.05
2023-03-02T11:48:33.952Z,5.00
2023-03-02T11:49:38.548Z,5.20
2023-03-02T11:50:46.206Z,8.05
2023-03-02T11:51:58.868Z,4.78
2023-03-02T11:53:03.774Z,5.30
2023-03-02T11:54:24.599Z,4.88
2023-03-02T11:55:30.229Z,4.90
2023-03-02T11:56:35.212Z,4.70
2023-03-02T11:57:45.470Z,4.30
2023-03-02T11:58:48.888Z,5.18
2023-03-02T11:59:50.536Z,5.50
2023-03-02T12:00:52.370Z,4.38
2023-03-02T12:01:54.028Z,5.30
2023-03-02T12:03:05.402Z,5.53
2023-03-02T12:04:32.380Z,5.40
2023-03-02T12:05:36.497Z,4.50
2023-03-02T12:06:39.970Z,4.65
2023-03-02T12:07:41.632Z,4.30
2023-03-02T12:08:45.075Z,4.20
2023-03-02T12:10:06.054Z,4.18
2023-03-02T12:11:16.896Z,4.43
2023-03-02T12:12:44.244Z,3.35
2023-03-02T12:13:57.938Z,4.32
2023-03-02T12:14:59.638Z,3.78
2023-03-02T12:16:01.566Z,4.50
2023-03-02T12:17:18.833Z,4.03
2023-03-02T12:18:23.040Z,4.82
2023-03-02T12:19:29.556Z,4.60
2023-03-02T12:20:31.170Z,4.40
2023-03-02T12:21:39.503Z,3.95
2023-03-02T12:22:42.308Z,4.60
2023-03-02T12:23:43.867Z,4.43
2023-03-02T12:24:45.493Z,3.80
2023-03-02T12:25:51.383Z,4.55
2023-03-02T12:27:08.250Z,3.90
2023-03-02T12:28:26.238Z,3.45
2023-03-02T12:29:39.990Z,4.07
2023-03-02T12:30:41.644Z,4.60
2023-03-02T12:31:47.026Z,3.70
2023-03-02T12:33:04.321Z,4.18
2023-03-02T12:34:20.856Z,4.20
2023-03-02T12:35:23.335Z,4.03
2023-03-02T12:36:27.352Z,4.40
2023-03-02T12:37:57.328Z,4.60
2023-03-02T12:39:05.258Z,4.27
2023-03-02T12:40:31.354Z,4.75
2023-03-02T12:41:57.618Z,4.97
2023-03-02T12:43:17.560Z,4.60
2023-03-02T12:44:31.392Z,4.28
2023-03-02T12:45:43.425Z,5.13
2023-03-02T12:46:45.915Z,4.32
2023-03-02T12:47:49.590Z,4.70
2023-03-02T12:49:21.665Z,4.85
2023-03-02T12:50:27.631Z,4.20
2023-03-02T12:51:31.184Z,4.30
2023-03-02T12:52:34.378Z,4.28
2023-03-02T12:53:37.480Z,5.10
2023-03-02T12:54:39.142Z,4.38
2023-03-02T12:55:40.809Z,4.55
2023-03-02T12:56:42.758Z,5.10
2023-03-02T12:57:52.058Z,4.80
2023-03-02T12:58:54.078Z,4.20
2023-03-02T13:00:00.775Z,4.88
2023-03-02T13:01:03.001Z,6.20
2023-03-02T13:02:13.514Z,12.63
2023-03-02T13:03:15.195Z,4.88
2023-03-02T13:04:24.350Z,4.50
2023-03-02T13:05:30.879Z,4.57
2023-03-02T13:06:32.747Z,4.13
2023-03-02T13:07:35.636Z,4.60
2023-03-02T13:08:37.317Z,4.75
2023-03-02T13:09:47.734Z,4.40
2023-03-02T13:10:57.756Z,4.97
2023-03-02T13:11:59.397Z,5.03
2023-03-02T13:13:01.070Z,5.17
2023-03-02T13:14:06.099Z,5.07
2023-03-02T13:15:14.143Z,5.85
2023-03-02T13:16:25.434Z,5.45
2023-03-02T13:17:32.528Z,6.05
2023-03-02T13:18:35.605Z,5.32
2023-03-02T13:19:37.521Z,5.43
2023-03-02T13:20:39.235Z,4.80
2023-03-02T13:21:40.982Z,4.90
2023-03-02T13:22:42.789Z,5.00
2023-03-02T13:23:48.860Z,4.80
2023-03-02T13:24:55.589Z,5.00
2023-03-02T13:26:05.492Z,4.95
2023-03-02T13:27:08.029Z,4.90
2023-03-02T13:28:25.321Z,5.70
2023-03-02T13:29:27.545Z,5.22
2023-03-02T13:30:32.564Z,4.93
2023-03-02T13:31:34.867Z,4.97
2023-03-02T13:32:39.426Z,5.03
2023-03-02T13:33:44.537Z,4.78
2023-03-02T13:34:56.742Z,4.03
2023-03-02T13:35:58.480Z,5.00
2023-03-02T13:37:00.119Z,3.97
2023-03-02T13:38:04.656Z,4.68
2023-03-02T13:39:07.671Z,4.75
2023-03-02T13:40:27.437Z,4.70
2023-03-02T13:41:33.842Z,4.55
2023-03-02T13:42:40.425Z,4.70
2023-03-02T13:43:42.051Z,4.93
2023-03-02T13:44:43.671Z,4.40
2023-03-02T13:45:55.235Z,4.70
2023-03-02T13:46:57.062Z,4.28
2023-03-02T13:48:00.764Z,4.40
2023-03-02T13:49:10.787Z,5.07
2023-03-02T13:50:24.077Z,4.60
2023-03-02T13:51:26.010Z,4.53
2023-03-02T13:52:29.576Z,4.70
2023-03-02T13:53:31.879Z,4.40
2023-03-02T13:54:35.230Z,4.43
2023-03-02T13:55:36.885Z,4.45
2023-03-02T13:56:40.585Z,4.43
2023-03-02T13:57:42.175Z,4.25
2023-03-02T13:58:43.796Z,4.90
2023-03-02T13:59:45.410Z,4.57
2023-03-02T14:00:47.088Z,4.80
2023-03-02T14:01:48.910Z,4.85
2023-03-02T14:02:50.616Z,4.90
2023-03-02T14:03:52.282Z,4.47
2023-03-02T14:04:54.101Z,4.97
2023-03-02T14:05:56.334Z,4.85
2023-03-02T14:06:57.985Z,4.97
2023-03-02T14:08:00.077Z,4.82
2023-03-02T14:09:01.667Z,5.38
2023-03-02T14:10:03.431Z,5.50
2023-03-02T14:11:05.352Z,6.00
2023-03-02T14:12:07.063Z,5.82